sensor_id;sensor_type;location;lat;lon;timestamp;P1;durP1;ratioP1;P2;durP2;ratioP2
52126;SDS011;38120;53.176;6.614;2022-12-18T00:01:12;70.65;;;31.70;;
52126;SDS011;38120;53.176;6.614;2022-12-18T00:03:50;65.68;;;30.33;;
52126;SDS011;38120;53.176;6.614;2022-12-18T00:06:16;63.22;;;32.78;;
52126;SDS011;38120;53.176;6.614;2022-12-18T00:08:43;67.60;;;32.63;;
52126;SDS011;38120;53.176;6.614;2022-12-18T00:11:14;63.17;;;30.35;;
52126;SDS011;38120;53.176;6.614;2022-12-18T00:13:41;71.75;;;31.95;;
52126;SDS011;38120;53.176;6.614;2022-12-18T00:16:09;75.70;;;36.38;;
52126;SDS011;38120;53.176;6.614;2022-12-18T00:18:36;80.47;;;34.90;;
52126;SDS011;38120;53.176;6.614;2022-12-18T00:21:03;73.22;;;34.88;;
52126;SDS011;38120;53.176;6.614;2022-12-18T00:23:31;61.90;;;31.10;;
52126;SDS011;38120;53.176;6.614;2022-12-18T00:25:59;75.32;;;34.70;;
52126;SDS011;38120;53.176;6.614;2022-12-18T00:28:26;72.35;;;34.53;;
52126;SDS011;38120;53.176;6.614;2022-12-18T00:30:59;66.85;;;33.95;;
52126;SDS011;38120;53.176;6.614;2022-12-18T00:33:25;79.25;;;34.25;;
52126;SDS011;38120;53.176;6.614;2022-12-18T00:35:51;64.38;;;33.75;;
52126;SDS011;38120;53.176;6.614;2022-12-18T00:38:17;62.35;;;29.73;;
52126;SDS011;38120;53.176;6.614;2022-12-18T00:40:43;74.73;;;31.67;;
52126;SDS011;38120;53.176;6.614;2022-12-18T00:43:09;74.87;;;34.23;;
52126;SDS011;38120;53.176;6.614;2022-12-18T00:45:35;76.10;;;35.67;;
52126;SDS011;38120;53.176;6.614;2022-12-18T00:48:00;78.23;;;36.37;;
52126;SDS011;38120;53.176;6.614;2022-12-18T00:50:26;67.67;;;34.50;;
52126;SDS011;38120;53.176;6.614;2022-12-18T00:52:52;68.03;;;32.47;;
52126;SDS011;38120;53.176;6.614;2022-12-18T00:55:18;84.00;;;35.05;;
52126;SDS011;38120;53.176;6.614;2022-12-18T00:57:44;63.75;;;33.50;;
52126;SDS011;38120;53.176;6.614;2022-12-18T01:00:11;73.67;;;34.30;;
52126;SDS011;38120;53.176;6.614;2022-12-18T01:02:38;63.38;;;32.35;;
52126;SDS011;38120;53.176;6.614;2022-12-18T01:05:04;73.88;;;35.58;;
52126;SDS011;38120;53.176;6.614;2022-12-18T01:07:30;70.07;;;32.95;;
52126;SDS011;38120;53.176;6.614;2022-12-18T01:09:56;68.63;;;32.20;;
52126;SDS011;38120;53.176;6.614;2022-12-18T01:12:22;69.67;;;33.73;;
52126;SDS011;38120;53.176;6.614;2022-12-18T01:14:47;73.27;;;33.03;;
52126;SDS011;38120;53.176;6.614;2022-12-18T01:17:13;69.30;;;34.77;;
52126;SDS011;38120;53.176;6.614;2022-12-18T01:19:39;60.30;;;30.48;;
52126;SDS011;38120;53.176;6.614;2022-12-18T01:22:05;61.87;;;30.07;;
52126;SDS011;38120;53.176;6.614;2022-12-18T01:24:30;57.77;;;31.87;;
52126;SDS011;38120;53.176;6.614;2022-12-18T01:26:56;60.80;;;31.90;;
52126;SDS011;38120;53.176;6.614;2022-12-18T01:29:22;73.32;;;32.35;;
52126;SDS011;38120;53.176;6.614;2022-12-18T01:31:48;67.50;;;32.45;;
52126;SDS011;38120;53.176;6.614;2022-12-18T01:34:14;65.33;;;33.80;;
52126;SDS011;38120;53.176;6.614;2022-12-18T01:36:39;57.03;;;31.17;;
52126;SDS011;38120;53.176;6.614;2022-12-18T01:39:12;63.07;;;29.47;;
52126;SDS011;38120;53.176;6.614;2022-12-18T01:41:39;75.95;;;33.45;;
52126;SDS011;38120;53.176;6.614;2022-12-18T01:50:06;76.13;;;35.03;;
52126;SDS011;38120;53.176;6.614;2022-12-18T01:52:37;74.57;;;34.38;;
52126;SDS011;38120;53.176;6.614;2022-12-18T01:55:05;75.03;;;33.78;;
52126;SDS011;38120;53.176;6.614;2022-12-18T01:57:32;69.50;;;33.88;;
52126;SDS011;38120;53.176;6.614;2022-12-18T02:00:03;72.38;;;33.70;;
52126;SDS011;38120;53.176;6.614;2022-12-18T02:02:31;81.93;;;34.80;;
52126;SDS011;38120;53.176;6.614;2022-12-18T02:04:57;70.97;;;33.75;;
52126;SDS011;38120;53.176;6.614;2022-12-18T02:07:30;69.57;;;34.03;;
52126;SDS011;38120;53.176;6.614;2022-12-18T02:10:13;64.28;;;30.05;;
52126;SDS011;38120;53.176;6.614;2022-12-18T02:12:52;74.68;;;32.65;;
52126;SDS011;38120;53.176;6.614;2022-12-18T02:18:17;58.13;;;29.50;;
52126;SDS011;38120;53.176;6.614;2022-12-18T02:20:56;67.68;;;34.70;;
52126;SDS011;38120;53.176;6.614;2022-12-18T02:31:25;61.30;;;30.65;;
52126;SDS011;38120;53.176;6.614;2022-12-18T02:33:54;69.35;;;32.38;;
52126;SDS011;38120;53.176;6.614;2022-12-18T02:36:23;67.38;;;32.78;;
52126;SDS011;38120;53.176;6.614;2022-12-18T02:38:50;78.78;;;31.98;;
52126;SDS011;38120;53.176;6.614;2022-12-18T02:41:18;70.95;;;33.03;;
52126;SDS011;38120;53.176;6.614;2022-12-18T02:43:48;58.83;;;32.13;;
52126;SDS011;38120;53.176;6.614;2022-12-18T02:46:32;72.90;;;32.40;;
52126;SDS011;38120;53.176;6.614;2022-12-18T02:49:05;67.80;;;34.22;;
52126;SDS011;38120;53.176;6.614;2022-12-18T02:57:13;75.90;;;36.30;;
52126;SDS011;38120;53.176;6.614;2022-12-18T03:00:04;73.93;;;35.47;;
52126;SDS011;38120;53.176;6.614;2022-12-18T03:02:39;85.45;;;35.33;;
52126;SDS011;38120;53.176;6.614;2022-12-18T03:05:15;77.82;;;35.38;;
52126;SDS011;38120;53.176;6.614;2022-12-18T03:07:51;75.20;;;35.35;;
52126;SDS011;38120;53.176;6.614;2022-12-18T03:10:24;75.13;;;33.33;;
52126;SDS011;38120;53.176;6.614;2022-12-18T03:13:06;68.45;;;34.65;;
52126;SDS011;38120;53.176;6.614;2022-12-18T03:15:42;74.65;;;35.92;;
52126;SDS011;38120;53.176;6.614;2022-12-18T03:18:13;78.18;;;36.60;;
52126;SDS011;38120;53.176;6.614;2022-12-18T03:20:44;71.40;;;32.25;;
52126;SDS011;38120;53.176;6.614;2022-12-18T03:23:14;66.68;;;33.65;;
52126;SDS011;38120;53.176;6.614;2022-12-18T03:25:43;72.55;;;33.10;;
52126;SDS011;38120;53.176;6.614;2022-12-18T03:28:12;70.28;;;34.67;;
52126;SDS011;38120;53.176;6.614;2022-12-18T03:30:41;72.07;;;35.78;;
52126;SDS011;38120;53.176;6.614;2022-12-18T03:36:02;68.70;;;33.55;;
52126;SDS011;38120;53.176;6.614;2022-12-18T03:38:28;65.70;;;33.67;;
52126;SDS011;38120;53.176;6.614;2022-12-18T03:41:03;82.27;;;34.93;;
52126;SDS011;38120;53.176;6.614;2022-12-18T03:44:15;78.15;;;35.88;;
52126;SDS011;38120;53.176;6.614;2022-12-18T03:52:18;65.75;;;32.65;;
52126;SDS011;38120;53.176;6.614;2022-12-18T03:54:59;67.60;;;33.92;;
52126;SDS011;38120;53.176;6.614;2022-12-18T03:57:28;61.72;;;32.65;;
52126;SDS011;38120;53.176;6.614;2022-12-18T04:00:00;68.18;;;33.28;;
52126;SDS011;38120;53.176;6.614;2022-12-18T04:02:31;77.43;;;33.75;;
52126;SDS011;38120;53.176;6.614;2022-12-18T04:05:00;68.28;;;33.75;;
52126;SDS011;38120;53.176;6.614;2022-12-18T04:07:28;72.88;;;33.22;;
52126;SDS011;38120;53.176;6.614;2022-12-18T04:09:55;73.43;;;33.10;;
52126;SDS011;38120;53.176;6.614;2022-12-18T04:12:24;81.10;;;34.72;;
52126;SDS011;38120;53.176;6.614;2022-12-18T04:14:53;70.00;;;33.75;;
52126;SDS011;38120;53.176;6.614;2022-12-18T04:17:19;67.07;;;32.15;;
52126;SDS011;38120;53.176;6.614;2022-12-18T04:19:45;73.57;;;33.58;;
52126;SDS011;38120;53.176;6.614;2022-12-18T04:22:11;66.50;;;30.33;;
52126;SDS011;38120;53.176;6.614;2022-12-18T04:24:36;57.40;;;31.93;;
52126;SDS011;38120;53.176;6.614;2022-12-18T04:27:02;62.47;;;31.87;;
52126;SDS011;38120;53.176;6.614;2022-12-18T04:29:28;63.58;;;30.30;;
52126;SDS011;38120;53.176;6.614;2022-12-18T04:31:54;71.20;;;32.77;;
52126;SDS011;38120;53.176;6.614;2022-12-18T04:34:20;63.60;;;33.53;;
52126;SDS011;38120;53.176;6.614;2022-12-18T04:36:46;68.75;;;33.03;;
52126;SDS011;38120;53.176;6.614;2022-12-18T04:39:11;58.87;;;31.47;;
52126;SDS011;38120;53.176;6.614;2022-12-18T04:41:37;63.33;;;31.97;;
52126;SDS011;38120;53.176;6.614;2022-12-18T04:44:03;61.27;;;30.80;;
52126;SDS011;38120;53.176;6.614;2022-12-18T04:46:29;74.70;;;32.03;;
52126;SDS011;38120;53.176;6.614;2022-12-18T04:48:55;73.40;;;30.60;;
52126;SDS011;38120;53.176;6.614;2022-12-18T04:51:21;56.93;;;30.50;;
52126;SDS011;38120;53.176;6.614;2022-12-18T04:53:47;67.72;;;32.58;;
52126;SDS011;38120;53.176;6.614;2022-12-18T04:56:13;64.13;;;32.67;;
52126;SDS011;38120;53.176;6.614;2022-12-18T04:58:41;62.10;;;31.92;;
52126;SDS011;38120;53.176;6.614;2022-12-18T05:01:08;66.78;;;33.60;;
52126;SDS011;38120;53.176;6.614;2022-12-18T05:03:35;55.63;;;30.50;;
52126;SDS011;38120;53.176;6.614;2022-12-18T05:06:01;63.75;;;33.15;;
52126;SDS011;38120;53.176;6.614;2022-12-18T05:11:00;59.72;;;31.20;;
52126;SDS011;38120;53.176;6.614;2022-12-18T05:15:57;60.67;;;28.45;;
52126;SDS011;38120;53.176;6.614;2022-12-18T05:18:23;56.60;;;30.00;;
52126;SDS011;38120;53.176;6.614;2022-12-18T05:20:49;52.28;;;29.77;;
52126;SDS011;38120;53.176;6.614;2022-12-18T05:23:16;68.32;;;30.95;;
52126;SDS011;38120;53.176;6.614;2022-12-18T05:25:42;59.97;;;28.17;;
52126;SDS011;38120;53.176;6.614;2022-12-18T05:28:11;62.00;;;31.00;;
52126;SDS011;38120;53.176;6.614;2022-12-18T05:30:37;63.17;;;29.47;;
52126;SDS011;38120;53.176;6.614;2022-12-18T05:33:02;72.13;;;28.37;;
52126;SDS011;38120;53.176;6.614;2022-12-18T05:35:28;52.53;;;28.52;;
52126;SDS011;38120;53.176;6.614;2022-12-18T05:37:54;63.53;;;30.03;;
52126;SDS011;38120;53.176;6.614;2022-12-18T05:40:19;48.97;;;27.07;;
52126;SDS011;38120;53.176;6.614;2022-12-18T05:42:45;48.47;;;27.47;;
52126;SDS011;38120;53.176;6.614;2022-12-18T05:45:11;58.50;;;29.58;;
52126;SDS011;38120;53.176;6.614;2022-12-18T05:47:36;55.77;;;27.00;;
52126;SDS011;38120;53.176;6.614;2022-12-18T05:50:02;56.97;;;29.47;;
52126;SDS011;38120;53.176;6.614;2022-12-18T05:52:28;49.60;;;25.58;;
52126;SDS011;38120;53.176;6.614;2022-12-18T05:54:55;59.35;;;27.13;;
52126;SDS011;38120;53.176;6.614;2022-12-18T05:57:21;57.47;;;27.07;;
52126;SDS011;38120;53.176;6.614;2022-12-18T05:59:46;51.63;;;25.37;;
52126;SDS011;38120;53.176;6.614;2022-12-18T06:02:12;47.00;;;23.70;;
52126;SDS011;38120;53.176;6.614;2022-12-18T06:04:38;51.70;;;28.50;;
52126;SDS011;38120;53.176;6.614;2022-12-18T06:07:03;50.90;;;25.90;;
52126;SDS011;38120;53.176;6.614;2022-12-18T06:09:29;47.60;;;26.37;;
52126;SDS011;38120;53.176;6.614;2022-12-18T06:11:55;58.43;;;26.63;;
52126;SDS011;38120;53.176;6.614;2022-12-18T06:14:20;51.67;;;24.20;;
52126;SDS011;38120;53.176;6.614;2022-12-18T06:16:46;47.53;;;25.50;;
52126;SDS011;38120;53.176;6.614;2022-12-18T06:19:16;45.83;;;26.08;;
52126;SDS011;38120;53.176;6.614;2022-12-18T06:21:42;50.92;;;25.58;;
52126;SDS011;38120;53.176;6.614;2022-12-18T06:24:08;51.17;;;26.63;;
52126;SDS011;38120;53.176;6.614;2022-12-18T06:26:36;40.80;;;23.37;;
52126;SDS011;38120;53.176;6.614;2022-12-18T06:29:03;45.22;;;25.70;;
52126;SDS011;38120;53.176;6.614;2022-12-18T06:31:28;40.57;;;22.10;;
52126;SDS011;38120;53.176;6.614;2022-12-18T06:33:54;46.83;;;24.73;;
52126;SDS011;38120;53.176;6.614;2022-12-18T06:36:20;43.27;;;22.97;;
52126;SDS011;38120;53.176;6.614;2022-12-18T06:38:46;38.13;;;25.33;;
52126;SDS011;38120;53.176;6.614;2022-12-18T06:41:13;41.38;;;25.42;;
52126;SDS011;38120;53.176;6.614;2022-12-18T06:43:44;38.90;;;23.63;;
52126;SDS011;38120;53.176;6.614;2022-12-18T06:46:10;35.38;;;20.50;;
52126;SDS011;38120;53.176;6.614;2022-12-18T06:48:36;45.92;;;24.65;;
52126;SDS011;38120;53.176;6.614;2022-12-18T06:51:01;42.57;;;21.77;;
52126;SDS011;38120;53.176;6.614;2022-12-18T06:53:28;40.28;;;23.80;;
52126;SDS011;38120;53.176;6.614;2022-12-18T06:56:04;35.17;;;21.75;;
52126;SDS011;38120;53.176;6.614;2022-12-18T06:58:31;39.55;;;21.85;;
52126;SDS011;38120;53.176;6.614;2022-12-18T07:01:00;44.78;;;23.45;;
52126;SDS011;38120;53.176;6.614;2022-12-18T07:03:27;41.67;;;23.67;;
52126;SDS011;38120;53.176;6.614;2022-12-18T07:05:53;44.65;;;22.83;;
52126;SDS011;38120;53.176;6.614;2022-12-18T07:08:19;42.33;;;21.63;;
52126;SDS011;38120;53.176;6.614;2022-12-18T07:10:46;45.10;;;23.23;;
52126;SDS011;38120;53.176;6.614;2022-12-18T07:13:14;40.97;;;22.05;;
52126;SDS011;38120;53.176;6.614;2022-12-18T07:15:40;36.30;;;20.15;;
52126;SDS011;38120;53.176;6.614;2022-12-18T07:18:06;39.43;;;20.23;;
52126;SDS011;38120;53.176;6.614;2022-12-18T07:20:31;33.80;;;21.33;;
52126;SDS011;38120;53.176;6.614;2022-12-18T07:22:57;36.33;;;19.07;;
52126;SDS011;38120;53.176;6.614;2022-12-18T07:25:23;30.93;;;20.03;;
52126;SDS011;38120;53.176;6.614;2022-12-18T07:27:48;42.07;;;21.83;;
52126;SDS011;38120;53.176;6.614;2022-12-18T07:30:14;31.37;;;19.30;;
52126;SDS011;38120;53.176;6.614;2022-12-18T07:32:40;33.63;;;19.97;;
52126;SDS011;38120;53.176;6.614;2022-12-18T07:35:05;34.20;;;20.17;;
52126;SDS011;38120;53.176;6.614;2022-12-18T07:37:31;31.40;;;18.67;;
52126;SDS011;38120;53.176;6.614;2022-12-18T07:39:57;33.77;;;18.93;;
52126;SDS011;38120;53.176;6.614;2022-12-18T07:42:23;36.80;;;20.43;;
52126;SDS011;38120;53.176;6.614;2022-12-18T07:45:00;38.00;;;21.20;;
52126;SDS011;38120;53.176;6.614;2022-12-18T07:47:27;37.40;;;20.02;;
52126;SDS011;38120;53.176;6.614;2022-12-18T07:49:53;40.90;;;21.65;;
52126;SDS011;38120;53.176;6.614;2022-12-18T07:52:19;37.47;;;21.13;;
52126;SDS011;38120;53.176;6.614;2022-12-18T07:54:45;39.50;;;21.08;;
52126;SDS011;38120;53.176;6.614;2022-12-18T07:57:10;33.37;;;21.33;;
52126;SDS011;38120;53.176;6.614;2022-12-18T07:59:36;36.43;;;20.47;;
52126;SDS011;38120;53.176;6.614;2022-12-18T08:02:02;41.77;;;21.47;;
52126;SDS011;38120;53.176;6.614;2022-12-18T08:04:28;35.10;;;20.75;;
52126;SDS011;38120;53.176;6.614;2022-12-18T08:06:53;36.23;;;19.83;;
52126;SDS011;38120;53.176;6.614;2022-12-18T08:09:19;35.13;;;21.13;;
52126;SDS011;38120;53.176;6.614;2022-12-18T08:11:45;33.13;;;19.63;;
52126;SDS011;38120;53.176;6.614;2022-12-18T08:14:10;37.73;;;21.47;;
52126;SDS011;38120;53.176;6.614;2022-12-18T08:16:36;34.17;;;19.90;;
52126;SDS011;38120;53.176;6.614;2022-12-18T08:19:02;32.95;;;20.15;;
52126;SDS011;38120;53.176;6.614;2022-12-18T08:21:29;33.95;;;19.00;;
52126;SDS011;38120;53.176;6.614;2022-12-18T08:23:56;33.80;;;19.92;;
52126;SDS011;38120;53.176;6.614;2022-12-18T08:26:24;35.55;;;19.30;;
52126;SDS011;38120;53.176;6.614;2022-12-18T08:28:53;31.20;;;19.23;;
52126;SDS011;38120;53.176;6.614;2022-12-18T08:31:20;31.23;;;19.63;;
52126;SDS011;38120;53.176;6.614;2022-12-18T08:33:47;34.35;;;19.00;;
52126;SDS011;38120;53.176;6.614;2022-12-18T08:36:14;31.42;;;18.80;;
52126;SDS011;38120;53.176;6.614;2022-12-18T08:38:40;39.35;;;21.30;;
52126;SDS011;38120;53.176;6.614;2022-12-18T08:41:07;38.20;;;21.10;;
52126;SDS011;38120;53.176;6.614;2022-12-18T08:43:35;32.97;;;20.92;;
52126;SDS011;38120;53.176;6.614;2022-12-18T08:46:20;39.03;;;21.30;;
52126;SDS011;38120;53.176;6.614;2022-12-18T08:48:47;42.13;;;21.45;;
52126;SDS011;38120;53.176;6.614;2022-12-18T08:51:13;35.25;;;21.00;;
52126;SDS011;38120;53.176;6.614;2022-12-18T08:53:41;34.08;;;20.92;;
52126;SDS011;38120;53.176;6.614;2022-12-18T08:56:07;34.03;;;20.20;;
52126;SDS011;38120;53.176;6.614;2022-12-18T08:58:33;32.15;;;21.70;;
52126;SDS011;38120;53.176;6.614;2022-12-18T09:00:59;31.87;;;19.93;;
52126;SDS011;38120;53.176;6.614;2022-12-18T09:03:27;34.08;;;20.35;;
52126;SDS011;38120;53.176;6.614;2022-12-18T09:05:52;29.77;;;19.92;;
52126;SDS011;38120;53.176;6.614;2022-12-18T09:08:18;27.13;;;18.87;;
52126;SDS011;38120;53.176;6.614;2022-12-18T09:10:44;34.63;;;18.57;;
52126;SDS011;38120;53.176;6.614;2022-12-18T09:13:12;28.38;;;19.05;;
52126;SDS011;38120;53.176;6.614;2022-12-18T09:15:41;34.95;;;19.13;;
52126;SDS011;38120;53.176;6.614;2022-12-18T09:18:08;36.13;;;19.10;;
52126;SDS011;38120;53.176;6.614;2022-12-18T09:20:35;31.45;;;17.92;;
52126;SDS011;38120;53.176;6.614;2022-12-18T09:25:28;26.80;;;19.33;;
52126;SDS011;38120;53.176;6.614;2022-12-18T09:27:58;31.90;;;18.40;;
52126;SDS011;38120;53.176;6.614;2022-12-18T09:30:25;29.77;;;17.83;;
52126;SDS011;38120;53.176;6.614;2022-12-18T09:32:51;28.38;;;17.67;;
52126;SDS011;38120;53.176;6.614;2022-12-18T09:35:17;28.40;;;16.17;;
52126;SDS011;38120;53.176;6.614;2022-12-18T09:37:42;22.40;;;16.37;;
52126;SDS011;38120;53.176;6.614;2022-12-18T09:40:16;26.03;;;17.13;;
52126;SDS011;38120;53.176;6.614;2022-12-18T09:42:45;27.02;;;18.05;;
52126;SDS011;38120;53.176;6.614;2022-12-18T09:45:17;25.70;;;15.88;;
52126;SDS011;38120;53.176;6.614;2022-12-18T09:47:43;23.15;;;16.88;;
52126;SDS011;38120;53.176;6.614;2022-12-18T09:50:26;22.92;;;14.73;;
52126;SDS011;38120;53.176;6.614;2022-12-18T09:52:58;22.35;;;14.65;;
52126;SDS011;38120;53.176;6.614;2022-12-18T09:55:31;27.83;;;15.35;;
52126;SDS011;38120;53.176;6.614;2022-12-18T09:58:43;26.65;;;15.07;;
52126;SDS011;38120;53.176;6.614;2022-12-18T10:01:09;22.42;;;13.60;;
52126;SDS011;38120;53.176;6.614;2022-12-18T10:03:45;21.02;;;13.65;;
52126;SDS011;38120;53.176;6.614;2022-12-18T10:14:23;26.00;;;15.30;;
52126;SDS011;38120;53.176;6.614;2022-12-18T10:17:23;22.60;;;13.30;;
52126;SDS011;38120;53.176;6.614;2022-12-18T10:28:12;23.67;;;13.63;;
52126;SDS011;38120;53.176;6.614;2022-12-18T10:30:40;18.83;;;12.15;;
52126;SDS011;38120;53.176;6.614;2022-12-18T10:33:11;17.67;;;12.52;;
52126;SDS011;38120;53.176;6.614;2022-12-18T10:35:41;19.45;;;12.40;;
52126;SDS011;38120;53.176;6.614;2022-12-18T10:43:44;19.42;;;11.65;;
52126;SDS011;38120;53.176;6.614;2022-12-18T10:48:36;16.50;;;10.50;;
52126;SDS011;38120;53.176;6.614;2022-12-18T10:51:24;17.10;;;9.57;;
52126;SDS011;38120;53.176;6.614;2022-12-18T10:54:13;17.83;;;9.95;;
52126;SDS011;38120;53.176;6.614;2022-12-18T10:56:42;15.35;;;9.60;;
52126;SDS011;38120;53.176;6.614;2022-12-18T10:59:09;17.30;;;9.30;;
52126;SDS011;38120;53.176;6.614;2022-12-18T11:04:31;15.30;;;9.98;;
52126;SDS011;38120;53.176;6.614;2022-12-18T11:07:04;17.02;;;10.73;;
52126;SDS011;38120;53.176;6.614;2022-12-18T11:09:35;15.45;;;9.52;;
52126;SDS011;38120;53.176;6.614;2022-12-18T11:12:03;14.93;;;10.52;;
52126;SDS011;38120;53.176;6.614;2022-12-18T11:14:47;15.38;;;9.77;;
52126;SDS011;38120;53.176;6.614;2022-12-18T11:17:22;17.15;;;9.55;;
52126;SDS011;38120;53.176;6.614;2022-12-18T11:19:57;13.50;;;8.90;;
52126;SDS011;38120;53.176;6.614;2022-12-18T11:22:43;13.95;;;10.55;;
52126;SDS011;38120;53.176;6.614;2022-12-18T11:25:22;15.57;;;9.70;;
52126;SDS011;38120;53.176;6.614;2022-12-18T11:27:48;12.05;;;7.95;;
52126;SDS011;38120;53.176;6.614;2022-12-18T11:32:49;13.43;;;8.33;;
52126;SDS011;38120;53.176;6.614;2022-12-18T11:37:57;16.23;;;8.13;;
52126;SDS011;38120;53.176;6.614;2022-12-18T11:40:35;15.57;;;9.45;;
52126;SDS011;38120;53.176;6.614;2022-12-18T11:45:49;12.90;;;7.78;;
52126;SDS011;38120;53.176;6.614;2022-12-18T11:48:33;14.23;;;8.52;;
52126;SDS011;38120;53.176;6.614;2022-12-18T11:51:04;15.07;;;8.73;;
52126;SDS011;38120;53.176;6.614;2022-12-18T11:53:45;16.30;;;8.20;;
52126;SDS011;38120;53.176;6.614;2022-12-18T12:04:32;16.90;;;8.15;;
52126;SDS011;38120;53.176;6.614;2022-12-18T12:10:22;13.88;;;7.30;;
52126;SDS011;38120;53.176;6.614;2022-12-18T12:21:41;11.95;;;7.60;;
52126;SDS011;38120;53.176;6.614;2022-12-18T12:27:00;12.85;;;7.65;;
52126;SDS011;38120;53.176;6.614;2022-12-18T12:29:46;12.02;;;7.55;;
52126;SDS011;38120;53.176;6.614;2022-12-18T12:35:09;11.55;;;7.43;;
52126;SDS011;38120;53.176;6.614;2022-12-18T12:38:05;10.35;;;6.30;;
52126;SDS011;38120;53.176;6.614;2022-12-18T12:40:47;15.20;;;7.53;;
52126;SDS011;38120;53.176;6.614;2022-12-18T12:46:19;11.70;;;6.00;;
52126;SDS011;38120;53.176;6.614;2022-12-18T12:51:35;11.50;;;6.63;;
52126;SDS011;38120;53.176;6.614;2022-12-18T12:54:05;9.73;;;6.57;;
52126;SDS011;38120;53.176;6.614;2022-12-18T12:56:40;11.02;;;5.68;;
52126;SDS011;38120;53.176;6.614;2022-12-18T13:02:03;9.63;;;5.75;;
52126;SDS011;38120;53.176;6.614;2022-12-18T13:12:57;11.18;;;6.32;;
52126;SDS011;38120;53.176;6.614;2022-12-18T13:15:38;9.52;;;5.35;;
52126;SDS011;38120;53.176;6.614;2022-12-18T13:20:34;11.13;;;6.40;;
52126;SDS011;38120;53.176;6.614;2022-12-18T13:25:58;11.80;;;6.57;;
52126;SDS011;38120;53.176;6.614;2022-12-18T13:31:11;12.65;;;7.47;;
52126;SDS011;38120;53.176;6.614;2022-12-18T13:34:09;12.13;;;6.15;;
52126;SDS011;38120;53.176;6.614;2022-12-18T13:36:50;13.13;;;7.35;;
52126;SDS011;38120;53.176;6.614;2022-12-18T13:41:43;13.77;;;6.97;;
52126;SDS011;38120;53.176;6.614;2022-12-18T13:47:02;9.70;;;6.20;;
52126;SDS011;38120;53.176;6.614;2022-12-18T13:52:01;11.70;;;7.47;;
52126;SDS011;38120;53.176;6.614;2022-12-18T13:54:39;11.00;;;7.25;;
52126;SDS011;38120;53.176;6.614;2022-12-18T13:57:22;11.27;;;6.93;;
52126;SDS011;38120;53.176;6.614;2022-12-18T13:59:53;13.23;;;7.50;;
52126;SDS011;38120;53.176;6.614;2022-12-18T14:02:23;14.07;;;10.27;;
52126;SDS011;38120;53.176;6.614;2022-12-18T14:04:50;15.90;;;8.82;;
52126;SDS011;38120;53.176;6.614;2022-12-18T14:09:49;15.23;;;8.10;;
52126;SDS011;38120;53.176;6.614;2022-12-18T14:12:18;15.55;;;8.80;;
52126;SDS011;38120;53.176;6.614;2022-12-18T14:20:50;14.27;;;7.43;;
52126;SDS011;38120;53.176;6.614;2022-12-18T14:23:28;14.38;;;7.43;;
52126;SDS011;38120;53.176;6.614;2022-12-18T14:25:59;12.90;;;7.03;;
52126;SDS011;38120;53.176;6.614;2022-12-18T14:28:27;14.38;;;7.25;;
52126;SDS011;38120;53.176;6.614;2022-12-18T14:30:54;15.32;;;8.15;;
52126;SDS011;38120;53.176;6.614;2022-12-18T14:43:26;10.80;;;7.70;;
52126;SDS011;38120;53.176;6.614;2022-12-18T14:45:53;11.55;;;6.32;;
52126;SDS011;38120;53.176;6.614;2022-12-18T14:51:50;12.88;;;7.90;;
52126;SDS011;38120;53.176;6.614;2022-12-18T14:53:46;12.93;;;7.50;;
52126;SDS011;38120;53.176;6.614;2022-12-18T14:56:14;11.93;;;7.38;;
52126;SDS011;38120;53.176;6.614;2022-12-18T15:01:32;11.93;;;7.65;;
52126;SDS011;38120;53.176;6.614;2022-12-18T15:04:03;13.80;;;7.90;;
52126;SDS011;38120;53.176;6.614;2022-12-18T15:06:31;14.95;;;7.97;;
52126;SDS011;38120;53.176;6.614;2022-12-18T15:09:00;14.10;;;7.75;;
52126;SDS011;38120;53.176;6.614;2022-12-18T15:11:45;17.48;;;8.93;;
52126;SDS011;38120;53.176;6.614;2022-12-18T15:17:17;11.32;;;7.85;;
52126;SDS011;38120;53.176;6.614;2022-12-18T15:19:44;15.88;;;8.50;;
52126;SDS011;38120;53.176;6.614;2022-12-18T15:24:55;16.05;;;8.98;;
52126;SDS011;38120;53.176;6.614;2022-12-18T15:27:34;14.27;;;8.30;;
52126;SDS011;38120;53.176;6.614;2022-12-18T15:32:52;16.35;;;9.50;;
52126;SDS011;38120;53.176;6.614;2022-12-18T15:35:43;15.02;;;9.77;;
52126;SDS011;38120;53.176;6.614;2022-12-18T15:38:08;17.53;;;10.47;;
52126;SDS011;38120;53.176;6.614;2022-12-18T15:40:34;13.90;;;8.13;;
52126;SDS011;38120;53.176;6.614;2022-12-18T15:43:00;14.37;;;9.57;;
52126;SDS011;38120;53.176;6.614;2022-12-18T15:45:44;14.65;;;8.68;;
52126;SDS011;38120;53.176;6.614;2022-12-18T15:48:19;14.82;;;9.15;;
52126;SDS011;38120;53.176;6.614;2022-12-18T15:50:47;14.52;;;8.40;;
52126;SDS011;38120;53.176;6.614;2022-12-18T15:53:16;16.23;;;9.48;;
52126;SDS011;38120;53.176;6.614;2022-12-18T15:55:43;16.38;;;9.38;;
52126;SDS011;38120;53.176;6.614;2022-12-18T15:58:27;16.05;;;9.15;;
52126;SDS011;38120;53.176;6.614;2022-12-18T16:00:53;16.80;;;10.17;;
52126;SDS011;38120;53.176;6.614;2022-12-18T16:03:21;15.02;;;9.43;;
52126;SDS011;38120;53.176;6.614;2022-12-18T16:05:47;10.97;;;8.80;;
52126;SDS011;38120;53.176;6.614;2022-12-18T16:08:12;12.03;;;8.73;;
52126;SDS011;38120;53.176;6.614;2022-12-18T16:10:38;15.13;;;9.57;;
52126;SDS011;38120;53.176;6.614;2022-12-18T16:13:03;16.33;;;9.03;;
52126;SDS011;38120;53.176;6.614;2022-12-18T16:15:29;13.83;;;9.80;;
52126;SDS011;38120;53.176;6.614;2022-12-18T16:17:55;15.30;;;9.70;;
52126;SDS011;38120;53.176;6.614;2022-12-18T16:20:21;13.03;;;8.73;;
52126;SDS011;38120;53.176;6.614;2022-12-18T16:22:47;15.38;;;9.82;;
52126;SDS011;38120;53.176;6.614;2022-12-18T16:25:25;14.32;;;8.65;;
52126;SDS011;38120;53.176;6.614;2022-12-18T16:27:52;12.43;;;8.55;;
52126;SDS011;38120;53.176;6.614;2022-12-18T16:30:23;14.77;;;8.18;;
52126;SDS011;38120;53.176;6.614;2022-12-18T16:32:52;15.52;;;9.02;;
52126;SDS011;38120;53.176;6.614;2022-12-18T16:35:19;14.93;;;9.02;;
52126;SDS011;38120;53.176;6.614;2022-12-18T16:37:45;14.93;;;9.40;;
52126;SDS011;38120;53.176;6.614;2022-12-18T16:40:12;14.93;;;9.27;;
52126;SDS011;38120;53.176;6.614;2022-12-18T16:42:39;17.00;;;8.65;;
52126;SDS011;38120;53.176;6.614;2022-12-18T16:45:08;14.85;;;9.98;;
52126;SDS011;38120;53.176;6.614;2022-12-18T16:47:36;13.93;;;9.07;;
52126;SDS011;38120;53.176;6.614;2022-12-18T16:50:02;14.33;;;9.63;;
52126;SDS011;38120;53.176;6.614;2022-12-18T16:54:54;13.50;;;9.82;;
52126;SDS011;38120;53.176;6.614;2022-12-18T16:57:20;13.30;;;8.68;;
52126;SDS011;38120;53.176;6.614;2022-12-18T16:59:46;14.43;;;9.23;;
52126;SDS011;38120;53.176;6.614;2022-12-18T17:02:14;18.05;;;9.07;;
52126;SDS011;38120;53.176;6.614;2022-12-18T17:04:45;14.13;;;9.27;;
52126;SDS011;38120;53.176;6.614;2022-12-18T17:07:11;17.05;;;8.95;;
52126;SDS011;38120;53.176;6.614;2022-12-18T17:09:37;14.68;;;9.73;;
52126;SDS011;38120;53.176;6.614;2022-12-18T17:12:03;15.18;;;9.15;;
52126;SDS011;38120;53.176;6.614;2022-12-18T17:14:29;14.93;;;8.63;;
52126;SDS011;38120;53.176;6.614;2022-12-18T17:16:57;14.77;;;9.45;;
52126;SDS011;38120;53.176;6.614;2022-12-18T17:21:50;14.07;;;8.80;;
52126;SDS011;38120;53.176;6.614;2022-12-18T17:24:26;14.52;;;8.63;;
52126;SDS011;38120;53.176;6.614;2022-12-18T17:26:52;13.55;;;9.07;;
52126;SDS011;38120;53.176;6.614;2022-12-18T17:29:18;18.80;;;10.33;;